createdAt,value
2019-04-10T00:01:40.535Z,100169.10
2019-04-10T00:04:15.781Z,100166.66
2019-04-10T00:06:48.002Z,100162.96
2019-04-10T00:09:19.545Z,100171.65
2019-04-10T00:11:53.418Z,100167.22
2019-04-10T00:14:28.243Z,100166.42
2019-04-10T00:17:00.938Z,100165.85
2019-04-10T00:19:33.082Z,100170.72
2019-04-10T00:22:06.294Z,100170.73
2019-04-10T00:24:40.030Z,100170.88
2019-04-10T00:27:16.685Z,100170.56
2019-04-10T00:29:50.463Z,100170.84
2019-04-10T00:32:23.735Z,100175.56
2019-04-10T00:34:58.185Z,100173.13
2019-04-10T00:37:32.400Z,100175.69
2019-04-10T00:40:03.372Z,100174.78
2019-04-10T00:42:34.871Z,100172.52
2019-04-10T00:45:09.154Z,100179.94
2019-04-10T00:47:46.187Z,100174.23
2019-04-10T00:50:18.784Z,100169.68
2019-04-10T00:52:49.094Z,100180.91
2019-04-10T00:55:19.750Z,100175.13
2019-04-10T00:57:54.610Z,100178.56
2019-04-10T01:00:26.147Z,100174.42
2019-04-10T01:02:58.857Z,100168.22
2019-04-10T01:05:31.785Z,100179.99
2019-04-10T01:08:04.854Z,100176.44
2019-04-10T01:10:36.621Z,100175.97
2019-04-10T01:13:08.372Z,100172.94
2019-04-10T01:15:40.607Z,100175.07
2019-04-10T01:18:11.149Z,100176.08
2019-04-10T01:20:45.036Z,100171.61
2019-04-10T01:23:18.571Z,100173.41
2019-04-10T01:25:49.164Z,100173.96
2019-04-10T01:28:21.310Z,100172.31
2019-04-10T01:30:57.473Z,100174.04
2019-04-10T01:33:28.416Z,100173.73
2019-04-10T01:35:58.902Z,100174.36
2019-04-10T01:38:29.853Z,100183.44
2019-04-10T01:41:01.475Z,100187.59
2019-04-10T01:43:35.123Z,100179.45
2019-04-10T01:46:08.384Z,100175.60
2019-04-10T01:48:39.801Z,100172.25
2019-04-10T01:51:10.814Z,100178.43
2019-04-10T01:53:41.972Z,100176.89
2019-04-10T01:56:24.795Z,100175.92
2019-04-10T01:58:49.633Z,100174.20
2019-04-10T02:01:28.271Z,100169.12
2019-04-10T02:04:00.560Z,100172.50
2019-04-10T02:06:33.611Z,100173.27
2019-04-10T02:09:05.288Z,100173.81
2019-04-10T02:11:38.351Z,100175.70
2019-04-10T02:14:08.944Z,100168.02
2019-04-10T02:16:39.519Z,100165.51
2019-04-10T02:19:16.438Z,100163.80
2019-04-10T02:21:48.409Z,100164.74
2019-04-10T02:24:19.224Z,100162.94
2019-04-10T02:26:49.852Z,100162.44
2019-04-10T02:29:21.597Z,100166.53
2019-04-10T02:31:53.373Z,100160.27
2019-04-10T02:34:28.880Z,100163.55
2019-04-10T02:37:06.793Z,100163.60
2019-04-10T02:39:42.413Z,100157.08
2019-04-10T02:42:10.176Z,100156.30
2019-04-10T02:44:41.656Z,100155.95
2019-04-10T02:47:13.029Z,100151.49
2019-04-10T02:49:47.101Z,100157.05
2019-04-10T02:52:20.392Z,100157.95
2019-04-10T02:54:51.285Z,100152.02
2019-04-10T02:57:27.632Z,100156.86
2019-04-10T03:00:03.715Z,100159.03
2019-04-10T03:02:33.693Z,100155.41
2019-04-10T03:05:07.288Z,100163.16
2019-04-10T03:07:40.375Z,100164.46
2019-04-10T03:10:23.253Z,100164.67
2019-04-10T03:12:46.276Z,100166.95
2019-04-10T03:15:25.190Z,100165.75
2019-04-10T03:18:04.176Z,100169.77
2019-04-10T03:20:38.485Z,100170.15
2019-04-10T03:23:12.021Z,100175.91
2019-04-10T03:25:45.458Z,100170.41
2019-04-10T03:28:16.671Z,100171.64
2019-04-10T03:30:49.406Z,100179.16
2019-04-10T03:33:33.769Z,100181.12
2019-04-10T03:36:05.271Z,100183.89
2019-04-10T03:38:53.492Z,100186.08
2019-04-10T03:41:12.241Z,100185.00
2019-04-10T03:43:43.814Z,100185.16
2019-04-10T03:46:21.862Z,100182.78
2019-04-10T03:48:55.633Z,100179.47
2019-04-10T03:51:26.479Z,100188.26
2019-04-10T03:53:57.061Z,100188.48
2019-04-10T03:56:27.957Z,100187.26
2019-04-10T03:59:02.155Z,100189.32
2019-04-10T04:01:35.670Z,100184.44
2019-04-10T04:04:07.051Z,100184.12
2019-04-10T04:06:39.849Z,100189.98
2019-04-10T04:09:13.550Z,100195.86
2019-04-10T04:11:44.667Z,100192.70
2019-04-10T04:14:17.448Z,100195.73
2019-04-10T04:16:49.130Z,100198.45
2019-04-10T04:19:20.123Z,100201.69
2019-04-10T04:22:01.093Z,100200.42
2019-04-10T04:24:54.279Z,100208.20
2019-04-10T04:27:53.808Z,100204.45
2019-04-10T04:30:31.987Z,100206.46
2019-04-10T04:33:04.799Z,100199.32
2019-04-10T04:35:35.059Z,100205.97
2019-04-10T04:38:07.088Z,100204.65
2019-04-10T04:40:44.239Z,100209.62
2019-04-10T04:43:14.978Z,100206.91
2019-04-10T04:45:48.212Z,100214.53
2019-04-10T04:48:22.132Z,100216.16
2019-04-10T04:51:03.932Z,100218.36
2019-04-10T04:53:37.977Z,100216.16
2019-04-10T04:56:11.416Z,100215.95
2019-04-10T04:58:47.539Z,100221.19
2019-04-10T05:01:21.073Z,100213.34
2019-04-10T05:03:52.599Z,100226.05
2019-04-10T05:06:25.024Z,100223.84
2019-04-10T05:08:56.850Z,100224.05
2019-04-10T05:11:38.425Z,100230.68
2019-04-10T05:14:13.885Z,100230.67
2019-04-10T05:16:46.206Z,100231.06
2019-04-10T05:19:17.407Z,100230.58
2019-04-10T05:21:48.233Z,100234.59
2019-04-10T05:24:22.263Z,100240.65
2019-04-10T05:26:53.630Z,100231.67
2019-04-10T05:29:25.067Z,100239.47
2019-04-10T05:31:58.787Z,100241.53
2019-04-10T05:34:30.669Z,100227.97
2019-04-10T05:37:03.141Z,100230.98
2019-04-10T05:39:41.347Z,100233.74
2019-04-10T05:42:08.467Z,100233.23
2019-04-10T05:44:40.190Z,100239.47
2019-04-10T05:47:19.223Z,100237.63
2019-04-10T05:49:50.129Z,100240.17
2019-04-10T05:52:23.522Z,100237.27
2019-04-10T05:54:59.947Z,100241.11
2019-04-10T05:57:39.059Z,100251.99
2019-04-10T06:00:10.954Z,100241.25
2019-04-10T06:02:41.862Z,100246.19
2019-04-10T06:05:16.265Z,100245.42
2019-04-10T06:07:47.549Z,100239.70
2019-04-10T06:10:19.761Z,100237.64
2019-04-10T06:12:52.896Z,100240.00
2019-04-10T06:15:23.197Z,100238.61
2019-04-10T06:17:54.588Z,100238.15
2019-04-10T06:20:25.191Z,100245.25
2019-04-10T06:23:01.410Z,100245.01
2019-04-10T06:25:34.059Z,100252.69
2019-04-10T06:28:05.252Z,100249.54
2019-04-10T06:30:36.343Z,100248.91
2019-04-10T06:33:12.310Z,100248.98
2019-04-10T06:35:46.944Z,100247.07
2019-04-10T06:38:21.030Z,100246.77
2019-04-10T06:40:52.360Z,100251.72
2019-04-10T06:43:23.716Z,100257.05
2019-04-10T06:45:57.850Z,100253.13
2019-04-10T06:48:28.511Z,100249.23
2019-04-10T06:50:59.843Z,100252.23
2019-04-10T06:53:33.259Z,100251.78
2019-04-10T06:56:04.882Z,100250.84
2019-04-10T06:58:36.031Z,100257.80
2019-04-10T07:01:08.276Z,100254.20
2019-04-10T07:03:52.787Z,100256.72
2019-04-10T07:06:20.792Z,100256.87
2019-04-10T07:08:53.348Z,100254.13
2019-04-10T07:11:30.445Z,100255.72
2019-04-10T07:14:04.911Z,100257.89
2019-04-10T07:16:42.209Z,100256.83
2019-04-10T07:19:17.781Z,100262.11
2019-04-10T07:22:09.854Z,100259.16
2019-04-10T07:24:42.500Z,100255.95
2019-04-10T07:27:16.052Z,100258.11
2019-04-10T07:29:53.898Z,100253.71
2019-04-10T07:32:33.914Z,100263.45
2019-04-10T07:35:05.327Z,100259.91
2019-04-10T07:37:44.446Z,100259.75
2019-04-10T07:40:18.638Z,100261.50
2019-04-10T07:43:07.338Z,100264.80
2019-04-10T07:45:39.944Z,100270.36
2019-04-10T07:48:18.458Z,100264.59
2019-04-10T07:50:55.869Z,100270.86
2019-04-10T07:53:30.892Z,100266.38
2019-04-10T07:56:13.557Z,100273.29
2019-04-10T07:58:51.663Z,100276.12
2019-04-10T08:01:27.360Z,100267.67
2019-04-10T08:04:01.867Z,100277.55
2019-04-10T08:06:33.239Z,100275.16
2019-04-10T08:09:10.543Z,100274.40
2019-04-10T08:11:42.936Z,100276.05
2019-04-10T08:14:14.840Z,100283.76
2019-04-10T08:16:57.748Z,100278.36
2019-04-10T08:19:32.829Z,100289.80
2019-04-10T08:22:06.607Z,100285.86
2019-04-10T08:24:49.818Z,100284.92
2019-04-10T08:27:19.800Z,100282.30
2019-04-10T08:29:54.881Z,100281.98
2019-04-10T08:32:27.643Z,100283.09
2019-04-10T08:35:11.200Z,100282.16
2019-04-10T08:37:50.712Z,100285.97
2019-04-10T08:40:52.304Z,100282.70
2019-04-10T08:43:43.627Z,100284.37
2019-04-10T08:46:33.659Z,100274.98
2019-04-10T08:49:08.305Z,100280.80
2019-04-10T08:51:41.723Z,100277.52
2019-04-10T08:54:14.644Z,100282.30
2019-04-10T08:56:45.343Z,100272.17
2019-04-10T08:59:23.829Z,100269.38
2019-04-10T09:01:56.084Z,100267.94
2019-04-10T09:04:29.237Z,100273.59
2019-04-10T09:07:04.278Z,100267.81
2019-04-10T09:09:39.451Z,100267.34
2019-04-10T09:12:31.666Z,100272.34
2019-04-10T09:15:01.575Z,100263.57
2019-04-10T09:17:39.735Z,100264.19
2019-04-10T09:20:18.539Z,100261.98
2019-04-10T09:23:13.456Z,100262.05
2019-04-10T09:25:28.519Z,100262.65
2019-04-10T09:28:40.657Z,100253.45
2019-04-10T09:31:20.501Z,100262.30
2019-04-10T09:36:54.162Z,100250.77
2019-04-10T09:39:39.139Z,100244.63
2019-04-10T09:42:19.405Z,100251.84
2019-04-10T09:44:52.819Z,100268.45
2019-04-10T09:47:24.806Z,100264.82
2019-04-10T09:49:57.966Z,100256.16
2019-04-10T09:52:28.583Z,100257.11
2019-04-10T09:54:59.652Z,100262.55
2019-04-10T09:57:30.562Z,100263.32
2019-04-10T10:00:05.417Z,100260.55
2019-04-10T10:03:00.111Z,100255.37
2019-04-10T10:05:31.099Z,100244.50
2019-04-10T10:08:11.577Z,100253.63
2019-04-10T10:10:50.268Z,100240.75
2019-04-10T10:13:31.853Z,100246.11
2019-04-10T10:16:23.983Z,100255.64
2019-04-10T10:19:07.857Z,100243.74
2019-04-10T10:21:35.067Z,100237.41
2019-04-10T10:24:10.712Z,100239.80
2019-04-10T10:26:46.061Z,100236.84
2019-04-10T10:29:21.782Z,100243.77
2019-04-10T10:32:13.706Z,100239.40
2019-04-10T10:34:50.425Z,100222.39
2019-04-10T10:37:22.171Z,100225.98
2019-04-10T10:39:57.375Z,100232.86
2019-04-10T10:42:38.481Z,100228.80
2019-04-10T10:45:12.457Z,100245.47
2019-04-10T10:47:44.958Z,100231.34
2019-04-10T10:50:22.103Z,100232.38
2019-04-10T10:52:57.988Z,100242.11
2019-04-10T10:55:29.618Z,100234.42
2019-04-10T10:58:03.732Z,100238.73
2019-04-10T11:00:35.491Z,100239.42
2019-04-10T11:03:18.187Z,100233.16
2019-04-10T11:05:50.723Z,100236.30
2019-04-10T11:08:29.352Z,100246.14
2019-04-10T11:11:02.791Z,100234.26
2019-04-10T11:13:39.589Z,100234.31
2019-04-10T11:16:13.070Z,100228.70
2019-04-10T11:18:51.085Z,100228.66
2019-04-10T11:21:24.821Z,100222.20
2019-04-10T11:24:04.672Z,100221.97
2019-04-10T11:26:38.406Z,100219.56
2019-04-10T11:29:11.874Z,100222.25
2019-04-10T11:31:42.846Z,100216.80
2019-04-10T11:34:16.580Z,100214.22
2019-04-10T11:37:15.617Z,100224.87
2019-04-10T11:39:31.651Z,100225.76
2019-04-10T11:41:57.832Z,100227.52
2019-04-10T11:44:34.742Z,100220.46
2019-04-10T11:47:10.486Z,100220.37
2019-04-10T11:49:43.415Z,100217.65
2019-04-10T11:52:19.017Z,100213.36
2019-04-10T11:54:49.170Z,100233.97
2019-04-10T11:57:22.884Z,100230.45
2019-04-10T12:00:06.579Z,100221.40
2019-04-10T12:02:39.648Z,100223.64
2019-04-10T12:05:20.083Z,100218.94
2019-04-10T12:08:21.075Z,100221.89
2019-04-10T12:13:20.396Z,100218.80
2019-04-10T12:16:51.565Z,100223.08
2019-04-10T12:19:25.029Z,100230.31
2019-04-10T12:21:56.077Z,100230.70
2019-04-10T12:24:26.928Z,100230.61
2019-04-10T12:27:07.141Z,100214.77
2019-04-10T12:29:42.532Z,100225.70
2019-04-10T12:32:13.074Z,100216.03
2019-04-10T12:35:02.142Z,100228.11
2019-04-10T12:37:39.631Z,100217.14
2019-04-10T12:40:11.832Z,100216.95
2019-04-10T12:42:44.205Z,100213.94
2019-04-10T12:45:16.275Z,100211.17
2019-04-10T12:47:50.257Z,100223.66
2019-04-10T12:50:22.860Z,100213.09
2019-04-10T12:52:54.738Z,100219.44
2019-04-10T12:55:34.611Z,100229.88
2019-04-10T12:58:15.880Z,100215.78
2019-04-10T13:00:54.059Z,100215.23
2019-04-10T13:03:31.357Z,100217.69
2019-04-10T13:06:33.905Z,100217.52
2019-04-10T13:10:02.555Z,100217.97
2019-04-10T13:12:47.232Z,100222.27
2019-04-10T13:15:27.660Z,100218.23
2019-04-10T13:18:23.130Z,100220.91
2019-04-10T13:20:57.976Z,100215.56
2019-04-10T13:23:33.147Z,100214.38
2019-04-10T13:26:24.238Z,100219.01
2019-04-10T13:28:58.025Z,100211.14
2019-04-10T13:31:33.109Z,100211.46
2019-04-10T13:34:15.303Z,100211.36
2019-04-10T13:37:24.999Z,100215.06
2019-04-10T13:39:59.058Z,100213.86
2019-04-10T13:42:31.551Z,100205.28
2019-04-10T13:45:02.864Z,100216.13
2019-04-10T13:47:38.625Z,100217.23
2019-04-10T13:50:10.557Z,100223.58
2019-04-10T13:52:52.617Z,100212.00
2019-04-10T13:55:24.364Z,100205.77
2019-04-10T13:58:04.716Z,100213.16
2019-04-10T14:00:40.029Z,100213.80
2019-04-10T14:03:16.356Z,100205.35
2019-04-10T14:05:52.883Z,100208.23
2019-04-10T14:08:58.651Z,100208.89
2019-04-10T14:11:17.439Z,100197.59
2019-04-10T14:13:46.233Z,100206.09
2019-04-10T14:16:20.863Z,100209.90
2019-04-10T14:18:52.892Z,100206.31
2019-04-10T14:21:27.278Z,100210.52
2019-04-10T14:24:04.073Z,100208.70
2019-04-10T14:26:52.199Z,100198.21
2019-04-10T14:29:26.935Z,100211.35
2019-04-10T14:32:03.211Z,100227.19
2019-04-10T14:34:42.971Z,100226.41
2019-04-10T14:37:21.199Z,100233.03
2019-04-10T14:39:57.757Z,100237.20
2019-04-10T14:42:32.783Z,100225.04
2019-04-10T14:45:13.161Z,100227.03
2019-04-10T14:47:47.644Z,100223.87
2019-04-10T14:50:19.839Z,100219.94
2019-04-10T14:52:53.843Z,100221.66
2019-04-10T14:55:27.166Z,100213.95
2019-04-10T14:57:59.146Z,100223.39
2019-04-10T15:00:53.229Z,100218.59
2019-04-10T15:03:28.577Z,100227.70
2019-04-10T15:06:09.154Z,100221.97
2019-04-10T15:08:48.795Z,100223.05
2019-04-10T15:11:24.772Z,100222.52
2019-04-10T15:13:55.875Z,100227.05
2019-04-10T15:16:27.393Z,100228.15
2019-04-10T15:19:00.301Z,100233.58
2019-04-10T15:21:34.671Z,100232.44
2019-04-10T15:24:07.013Z,100237.34
2019-04-10T15:26:50.897Z,100239.23
2019-04-10T15:29:47.591Z,100237.31
2019-04-10T15:32:25.271Z,100249.91
2019-04-10T15:35:00.439Z,100248.16
2019-04-10T15:37:55.758Z,100243.93
2019-04-10T15:40:42.015Z,100234.97
2019-04-10T15:43:12.612Z,100239.72
2019-04-10T15:45:46.328Z,100245.48
2019-04-10T15:48:20.878Z,100241.48
2019-04-10T15:50:54.244Z,100229.38
2019-04-10T15:53:27.071Z,100234.38
2019-04-10T15:56:01.296Z,100243.45
2019-04-10T15:58:37.473Z,100245.89
2019-04-10T16:01:18.099Z,100241.11
2019-04-10T16:03:52.754Z,100249.12
2019-04-10T16:06:25.118Z,100244.31
2019-04-10T16:08:57.122Z,100242.07
2019-04-10T16:11:42.045Z,100243.53
2019-04-10T16:14:23.194Z,100247.63
2019-04-10T16:17:22.900Z,100245.00
2019-04-10T16:20:06.118Z,100247.80
2019-04-10T16:22:46.752Z,100253.77
2019-04-10T16:25:30.333Z,100264.37
2019-04-10T16:28:06.262Z,100247.28
2019-04-10T16:30:37.253Z,100246.97
2019-04-10T16:33:11.189Z,100256.45
2019-04-10T16:35:46.121Z,100257.52
2019-04-10T16:38:18.869Z,100264.63
2019-04-10T16:40:49.998Z,100259.80
2019-04-10T16:43:22.315Z,100260.03
2019-04-10T16:45:53.065Z,100268.91
2019-04-10T16:48:34.249Z,100269.55
2019-04-10T16:51:08.029Z,100268.88
2019-04-10T16:53:39.488Z,100262.39
2019-04-10T16:56:11.522Z,100266.12
2019-04-10T16:58:42.989Z,100273.77
2019-04-10T17:01:20.628Z,100272.86
2019-04-10T17:03:53.034Z,100280.91
2019-04-10T17:06:28.855Z,100288.22
2019-04-10T17:09:02.637Z,100288.20
2019-04-10T17:11:45.292Z,100291.80
2019-04-10T17:14:23.812Z,100287.27
2019-04-10T17:17:00.495Z,100288.06
2019-04-10T17:19:46.612Z,100294.34
2019-04-10T17:22:14.977Z,100300.77
2019-04-10T17:25:20.160Z,100298.94
2019-04-10T17:28:25.412Z,100308.24
2019-04-10T17:31:36.213Z,100308.04
2019-04-10T17:34:11.343Z,100310.41
2019-04-10T17:37:01.208Z,100311.09
2019-04-10T17:40:00.086Z,100314.02
2019-04-10T17:42:44.180Z,100323.80
2019-04-10T17:45:42.797Z,100328.83
2019-04-10T17:48:05.582Z,100324.83
2019-04-10T17:50:45.674Z,100332.28
2019-04-10T17:53:25.197Z,100333.75
2019-04-10T17:56:34.146Z,100337.29
2019-04-10T17:59:16.798Z,100345.03
2019-04-10T18:01:53.721Z,100341.86
2019-04-10T18:04:27.696Z,100348.36
2019-04-10T18:07:03.925Z,100357.61
2019-04-10T18:09:36.823Z,100357.90
2019-04-10T18:12:10.671Z,100363.93
2019-04-10T18:14:53.892Z,100360.93
2019-04-10T18:17:35.433Z,100370.78
2019-04-10T18:20:16.367Z,100378.80
2019-04-10T18:22:55.843Z,100377.83
2019-04-10T18:25:31.181Z,100382.05
2019-04-10T18:28:11.546Z,100388.68
2019-04-10T18:30:54.999Z,100389.25
2019-04-10T18:33:31.031Z,100394.67
2019-04-10T18:36:03.166Z,100398.70
2019-04-10T18:38:37.749Z,100399.70
2019-04-10T18:41:11.748Z,100406.64
2019-04-10T18:43:44.675Z,100413.28
2019-04-10T18:46:23.889Z,100413.78
2019-04-10T18:48:58.997Z,100419.16
2019-04-10T18:51:40.694Z,100427.28
2019-04-10T18:54:16.590Z,100432.52
2019-04-10T18:57:11.700Z,100432.91
2019-04-10T19:00:15.762Z,100441.86
2019-04-10T19:03:13.022Z,100443.03
2019-04-10T19:05:46.361Z,100446.34
2019-04-10T19:08:21.855Z,100449.76
2019-04-10T19:11:07.650Z,100453.15
2019-04-10T19:13:25.246Z,100461.17
2019-04-10T19:15:57.262Z,100463.58
2019-04-10T19:18:29.890Z,100462.16
2019-04-10T19:21:00.613Z,100468.62
2019-04-10T19:23:33.084Z,100477.84
2019-04-10T19:26:05.509Z,100480.20
2019-04-10T19:28:41.889Z,100490.40
2019-04-10T19:31:19.467Z,100479.27
2019-04-10T19:33:49.237Z,100486.14
2019-04-10T19:36:34.581Z,100488.21
2019-04-10T19:39:07.908Z,100490.58
2019-04-10T19:41:41.454Z,100493.99
2019-04-10T19:44:14.982Z,100492.73
2019-04-10T19:46:45.978Z,100495.02
2019-04-10T19:49:20.375Z,100499.28
2019-04-10T19:51:53.473Z,100504.56
2019-04-10T19:54:24.165Z,100500.91
2019-04-10T19:56:59.779Z,100495.94
2019-04-10T20:00:22.137Z,100497.87
2019-04-10T20:03:07.987Z,100501.55
2019-04-10T20:05:49.463Z,100502.34
2019-04-10T20:08:44.025Z,100503.62
2019-04-10T20:11:35.903Z,100496.48
2019-04-10T20:14:00.848Z,100507.95
2019-04-10T20:16:57.794Z,100507.87
2019-04-10T20:20:23.572Z,100513.69
2019-04-10T20:23:02.665Z,100514.50
2019-04-10T20:25:39.214Z,100521.02
2019-04-10T20:28:24.680Z,100528.90
2019-04-10T20:31:02.340Z,100521.11
2019-04-10T20:33:39.204Z,100525.19
2019-04-10T20:36:17.222Z,100527.01
2019-04-10T20:39:25.350Z,100529.53
2019-04-10T20:42:48.808Z,100533.55
2019-04-10T20:46:30.479Z,100536.07
2019-04-10T20:49:12.101Z,100529.63
2019-04-10T20:52:13.522Z,100534.48
2019-04-10T20:55:11.251Z,100542.58
2019-04-10T20:58:29.475Z,100546.66
2019-04-10T21:01:41.576Z,100555.30
2019-04-10T21:07:44.138Z,100553.95
2019-04-10T21:10:34.950Z,100554.11
2019-04-10T21:13:19.019Z,100552.53
2019-04-10T21:16:56.379Z,100559.12
2019-04-10T21:19:40.878Z,100562.09
2019-04-10T21:22:30.982Z,100562.09
2019-04-10T21:28:50.277Z,100571.52
2019-04-10T21:31:50.539Z,100571.03
2019-04-10T21:35:37.108Z,100571.98
2019-04-10T21:38:38.806Z,100577.44
2019-04-10T21:41:53.566Z,100586.16
2019-04-10T21:45:11.017Z,100583.31
2019-04-10T21:47:55.993Z,100591.21
2019-04-10T21:50:47.396Z,100583.23
2019-04-10T21:53:22.263Z,100598.97
2019-04-10T21:56:10.436Z,100590.77
2019-04-10T21:58:42.582Z,100600.27
2019-04-10T22:01:28.330Z,100597.11
2019-04-10T22:04:32.889Z,100602.88
2019-04-10T22:11:34.296Z,100602.89
2019-04-10T22:14:15.610Z,100609.06
2019-04-10T22:16:50.541Z,100606.92
2019-04-10T22:19:32.270Z,100609.56
2019-04-10T22:22:15.213Z,100609.26
2019-04-10T22:24:54.736Z,100611.25
2019-04-10T22:27:31.625Z,100613.04
2019-04-10T22:30:08.353Z,100611.83
2019-04-10T22:32:45.578Z,100608.55
2019-04-10T22:35:17.472Z,100611.41
2019-04-10T22:37:57.316Z,100617.25
2019-04-10T22:40:29.140Z,100626.19
2019-04-10T22:43:03.424Z,100617.39
2019-04-10T22:45:34.093Z,100625.83
2019-04-10T22:48:04.581Z,100627.69
2019-04-10T22:50:41.492Z,100622.18
2019-04-10T22:53:23.426Z,100631.05
2019-04-10T22:55:58.366Z,100630.83
2019-04-10T22:58:31.550Z,100628.75
2019-04-10T23:01:02.792Z,100628.81
2019-04-10T23:03:45.228Z,100627.27
2019-04-10T23:06:24.922Z,100631.98
2019-04-10T23:09:00.248Z,100634.81
2019-04-10T23:11:52.322Z,100632.33
2019-04-10T23:14:36.591Z,100638.89
2019-04-10T23:17:10.728Z,100641.06
2019-04-10T23:19:42.769Z,100641.80
2019-04-10T23:22:15.235Z,100653.97
2019-04-10T23:24:47.703Z,100651.13
2019-04-10T23:27:19.897Z,100652.22
2019-04-10T23:29:52.660Z,100661.20
2019-04-10T23:32:27.023Z,100662.30
2019-04-10T23:35:01.465Z,100660.61
2019-04-10T23:37:33.050Z,100665.92
2019-04-10T23:40:08.591Z,100662.40
2019-04-10T23:42:41.368Z,100664.64
2019-04-10T23:45:15.560Z,100672.89
2019-04-10T23:47:48.697Z,100673.91
2019-04-10T23:50:21.875Z,100670.38
2019-04-10T23:52:52.906Z,100671.70
2019-04-10T23:55:24.618Z,100675.31
2019-04-10T23:57:58.431Z,100676.92
